Startpagina
METAR-TAF:

METAR-TAF

Vliegvelden :

Dübendorf, Zwitserland

breedte: 47-23-55N, lengte: 8-38-53E, hoogte: 448 m

Actueel weer

Dit bericht is 15 minuten geleden gemaakt, om 13:50 UTC
Wind 5 kt uit het noordoosten, variërend tussen het noordnoordwesten en het oostzuidoosten
Temperatuur 22°C
Vochtigheid 31%
Druk 1022 hPa
Zicht 10 km of meer
Weinig wolken op 23000 ft

METAR: LSMD 101350Z AUTO 05005KT 340V110 9999NDV FEW230 22/04 Q1022 RMK

Tijdstip: 16:05 (14:05 UTC)


TAF: ontbreekt

Waarnemingen en weersverwachtingen van meer dan 4000 vliegvelden (METAR en TAF).

De beschikbare stations zijn de gele en rode punten op de kaart.

Ga met uw muis naar het station om de naam te zien.

Klik dan om waarnemingen en weersverwachtingen te zien.

kaart wijzigen: klik op de groene knoppen met een zwart kruis om in te zoomen, op de groene knop met een streepje om uit te zoomen of op de groene pijlen voor aangrenzende kaarten.


METAR-TAF: